createdAt,value
2023-04-12T00:00:46.068Z,3.33
2023-04-12T00:03:21.329Z,3.28
2023-04-12T00:05:55.182Z,4.65
2023-04-12T00:08:26.256Z,5.93
2023-04-12T00:10:54.067Z,5.03
2023-04-12T00:13:22.124Z,5.95
2023-04-12T00:15:50.006Z,9.27
2023-04-12T00:18:19.316Z,5.55
2023-04-12T00:20:47.048Z,4.55
2023-04-12T00:23:15.616Z,3.05
2023-04-12T00:25:43.341Z,5.43
2023-04-12T00:28:11.150Z,3.35
2023-04-12T00:30:39.059Z,6.38
2023-04-12T00:33:07.256Z,7.63
2023-04-12T00:35:36.537Z,6.32
2023-04-12T00:38:06.431Z,8.32
2023-04-12T00:40:34.206Z,9.00
2023-04-12T00:43:02.881Z,4.85
2023-04-12T00:45:30.863Z,6.88
2023-04-12T00:47:58.764Z,6.47
2023-04-12T00:50:26.542Z,6.35
2023-04-12T00:52:56.488Z,6.15
2023-04-12T00:55:24.642Z,5.00
2023-04-12T00:57:52.794Z,5.07
2023-04-12T01:00:20.847Z,8.20
2023-04-12T01:02:51.075Z,5.38
2023-04-12T01:05:23.031Z,3.80
2023-04-12T01:07:54.488Z,6.75
2023-04-12T01:10:28.222Z,6.28
2023-04-12T01:12:59.678Z,4.65
2023-04-12T01:15:28.099Z,5.07
2023-04-12T01:17:58.568Z,5.30
2023-04-12T01:20:28.751Z,6.80
2023-04-12T01:23:11.171Z,7.95
2023-04-12T01:25:47.020Z,5.45
2023-04-12T01:28:17.253Z,4.13
2023-04-12T01:30:46.320Z,8.90
2023-04-12T01:33:14.958Z,5.78
2023-04-12T01:35:43.752Z,5.18
2023-04-12T01:38:11.617Z,5.53
2023-04-12T01:40:40.762Z,3.47
2023-04-12T01:43:09.088Z,5.82
2023-04-12T01:45:38.677Z,5.32
2023-04-12T01:48:08.514Z,7.82
2023-04-12T01:50:40.765Z,5.78
2023-04-12T01:53:10.746Z,4.55
2023-04-12T01:55:39.982Z,13.30
2023-04-12T01:58:08.518Z,12.57
2023-04-12T02:00:38.279Z,14.80
2023-04-12T02:03:06.761Z,14.05
2023-04-12T02:05:35.511Z,19.85
2023-04-12T02:08:03.909Z,20.00
2023-04-12T02:10:31.905Z,20.52
2023-04-12T02:13:00.049Z,13.75
2023-04-12T02:15:28.369Z,16.23
2023-04-12T02:17:59.580Z,15.70
2023-04-12T02:20:27.794Z,8.23
2023-04-12T02:22:55.697Z,9.32
2023-04-12T02:25:23.892Z,4.88
2023-04-12T02:27:51.636Z,5.57
2023-04-12T02:30:20.357Z,8.60
2023-04-12T02:32:48.377Z,7.32
2023-04-12T02:35:19.532Z,5.43
2023-04-12T02:37:48.450Z,7.60
2023-04-12T02:40:16.505Z,8.43
2023-04-12T02:42:44.916Z,8.55
2023-04-12T02:45:12.793Z,12.75
2023-04-12T02:47:41.186Z,10.55
2023-04-12T02:50:09.549Z,7.60
2023-04-12T02:52:38.748Z,12.60
2023-04-12T02:55:07.007Z,16.02
2023-04-12T02:57:34.994Z,16.13
2023-04-12T03:00:08.235Z,23.65
2023-04-12T03:02:36.521Z,31.45
2023-04-12T03:05:05.103Z,24.60
2023-04-12T03:07:32.905Z,21.83
2023-04-12T03:10:02.690Z,21.23
2023-04-12T03:12:30.751Z,14.20
2023-04-12T03:14:58.857Z,14.65
2023-04-12T03:17:26.995Z,12.75
2023-04-12T03:19:54.845Z,13.68
2023-04-12T03:22:23.461Z,8.63
2023-04-12T03:24:51.763Z,10.18
2023-04-12T03:27:21.019Z,8.07
2023-04-12T03:29:48.780Z,11.45
2023-04-12T03:32:16.768Z,6.03
2023-04-12T03:34:45.614Z,10.90
2023-04-12T03:37:13.460Z,11.25
2023-04-12T03:39:41.629Z,9.98
2023-04-12T03:42:18.568Z,15.10
2023-04-12T03:44:55.278Z,18.63
2023-04-12T03:47:23.162Z,20.05
2023-04-12T03:50:06.035Z,19.00
2023-04-12T03:52:38.768Z,8.65
2023-04-12T03:55:07.628Z,10.50
2023-04-12T03:57:36.454Z,13.27
2023-04-12T04:00:08.412Z,13.18
2023-04-12T04:02:36.835Z,9.27
2023-04-12T04:05:05.246Z,5.70
2023-04-12T04:07:33.174Z,9.18
2023-04-12T04:10:01.021Z,7.93
2023-04-12T04:12:28.847Z,6.07
2023-04-12T04:14:56.591Z,6.78
2023-04-12T04:17:26.267Z,8.82
2023-04-12T04:19:54.004Z,8.55
2023-04-12T04:22:23.202Z,8.15
2023-04-12T04:24:51.684Z,8.88
2023-04-12T04:27:20.718Z,10.15
2023-04-12T04:29:48.506Z,5.88
2023-04-12T04:32:16.469Z,8.50
2023-04-12T04:34:45.827Z,6.20
2023-04-12T04:37:13.608Z,9.45
2023-04-12T04:39:41.785Z,10.35
2023-04-12T04:42:09.619Z,10.82
2023-04-12T04:44:37.692Z,10.85
2023-04-12T04:47:06.893Z,9.18
2023-04-12T04:49:34.962Z,9.50
2023-04-12T04:52:04.351Z,11.13
2023-04-12T04:54:33.156Z,8.40
2023-04-12T04:57:01.679Z,14.63
2023-04-12T04:59:29.414Z,13.68
2023-04-12T05:01:57.408Z,12.30
2023-04-12T05:04:25.301Z,14.57
2023-04-12T05:06:54.005Z,19.77
2023-04-12T05:09:23.340Z,12.73
2023-04-12T05:11:51.463Z,16.55
2023-04-12T05:14:20.365Z,14.00
2023-04-12T05:16:48.644Z,13.10
2023-04-12T05:19:16.427Z,12.43
2023-04-12T05:21:45.702Z,14.70
2023-04-12T05:24:13.451Z,22.73
2023-04-12T05:26:42.516Z,25.17
2023-04-12T05:29:10.652Z,25.00
2023-04-12T05:31:38.693Z,16.27
2023-04-12T05:34:06.503Z,17.75
2023-04-12T05:36:34.528Z,14.73
2023-04-12T05:39:02.275Z,13.05
2023-04-12T05:41:31.310Z,11.93
2023-04-12T05:44:00.785Z,14.48
2023-04-12T05:46:28.555Z,13.02
2023-04-12T05:48:57.208Z,11.73
2023-04-12T05:51:39.894Z,8.88
2023-04-12T05:54:09.386Z,11.93
2023-04-12T05:56:37.903Z,8.15
2023-04-12T05:59:07.475Z,7.18
2023-04-12T06:01:35.257Z,8.85
2023-04-12T06:04:04.127Z,9.88
2023-04-12T06:06:32.321Z,7.40
2023-04-12T06:09:00.720Z,6.45
2023-04-12T06:11:28.697Z,6.95
2023-04-12T06:13:56.494Z,11.93
2023-04-12T06:16:25.889Z,4.65
2023-04-12T06:18:53.698Z,6.65
2023-04-12T06:21:21.660Z,5.95
2023-04-12T06:23:49.450Z,10.52
2023-04-12T06:26:18.549Z,6.20
2023-04-12T06:28:46.902Z,4.53
2023-04-12T06:31:14.741Z,10.70
2023-04-12T06:33:44.039Z,8.55
2023-04-12T06:36:12.661Z,7.03
2023-04-12T06:38:40.954Z,6.95
2023-04-12T06:41:08.808Z,6.25
2023-04-12T06:43:37.032Z,8.02
2023-04-12T06:46:05.031Z,7.15
2023-04-12T06:48:32.877Z,8.23
2023-04-12T06:51:02.028Z,8.20
2023-04-12T06:53:30.832Z,9.95
2023-04-12T06:55:58.666Z,9.57
2023-04-12T06:58:26.573Z,6.65
2023-04-12T07:00:54.636Z,6.13
2023-04-12T07:03:24.308Z,7.57
2023-04-12T07:05:56.345Z,7.57
2023-04-12T07:08:26.259Z,8.68
2023-04-12T07:10:55.225Z,8.20
2023-04-12T07:13:23.520Z,8.50
2023-04-12T07:15:51.807Z,7.03
2023-04-12T07:18:19.869Z,6.38
2023-04-12T07:20:48.384Z,8.07
2023-04-12T07:23:16.295Z,7.30
2023-04-12T07:25:45.932Z,14.65
2023-04-12T07:28:13.680Z,6.40
2023-04-12T07:30:41.445Z,5.88
2023-04-12T07:33:18.909Z,5.28
2023-04-12T07:39:16.616Z,3.05
2023-04-12T07:41:51.023Z,8.10
2023-04-12T07:44:18.910Z,5.70
2023-04-12T07:46:46.802Z,4.18
2023-04-12T07:49:14.801Z,5.28
2023-04-12T07:51:43.790Z,5.35
2023-04-12T07:54:13.212Z,12.30
2023-04-12T07:56:41.026Z,5.15
2023-04-12T07:59:10.273Z,5.57
2023-04-12T08:01:38.435Z,5.60
2023-04-12T08:04:06.678Z,4.43
2023-04-12T08:06:34.654Z,10.18
2023-04-12T08:09:04.147Z,8.63
2023-04-12T08:11:32.206Z,6.28
2023-04-12T08:14:00.271Z,4.88
2023-04-12T08:16:32.500Z,5.40
2023-04-12T08:19:00.351Z,6.97
2023-04-12T08:21:30.145Z,7.53
2023-04-12T08:23:58.590Z,5.72
2023-04-12T08:26:27.766Z,3.13
2023-04-12T08:28:57.511Z,4.50
2023-04-12T08:31:25.632Z,4.53
2023-04-12T08:33:55.053Z,5.15
2023-04-12T08:36:22.868Z,7.88
2023-04-12T08:38:52.576Z,3.92
2023-04-12T08:41:20.875Z,7.70
2023-04-12T08:43:48.961Z,3.30
2023-04-12T08:46:17.428Z,9.90
2023-04-12T08:48:47.003Z,9.07
2023-04-12T08:51:17.449Z,3.55
2023-04-12T08:53:45.616Z,7.30
2023-04-12T08:56:15.847Z,7.55
2023-04-12T08:58:48.932Z,4.53
2023-04-12T09:03:48.126Z,4.38
2023-04-12T09:06:17.433Z,5.43
2023-04-12T09:08:55.039Z,2.83
2023-04-12T09:11:25.555Z,5.80
2023-04-12T09:13:54.825Z,5.35
2023-04-12T09:16:36.661Z,6.20
2023-04-12T09:19:05.275Z,3.00
2023-04-12T09:21:35.635Z,3.25
2023-04-12T09:24:04.511Z,2.85
2023-04-12T09:26:32.560Z,4.78
2023-04-12T09:29:01.133Z,6.47
2023-04-12T09:31:29.157Z,5.15
2023-04-12T09:34:07.028Z,5.97
2023-04-12T09:36:40.534Z,5.75
2023-04-12T09:39:08.860Z,6.80
2023-04-12T09:41:37.070Z,7.47
2023-04-12T09:44:05.023Z,5.60
2023-04-12T09:46:33.384Z,6.10
2023-04-12T09:49:03.386Z,4.45
2023-04-12T09:51:32.812Z,3.67
2023-04-12T09:54:03.639Z,6.22
2023-04-12T09:56:32.222Z,2.97
2023-04-12T09:59:04.083Z,4.18
2023-04-12T10:01:35.571Z,3.28
2023-04-12T10:04:04.739Z,5.55
2023-04-12T10:06:33.642Z,3.95
2023-04-12T10:09:04.447Z,3.00
2023-04-12T10:11:35.256Z,3.95
2023-04-12T10:14:03.395Z,5.32
2023-04-12T10:16:31.754Z,7.05
2023-04-12T10:19:02.636Z,5.47
2023-04-12T10:21:31.144Z,5.05
2023-04-12T10:23:59.029Z,2.35
2023-04-12T10:26:28.775Z,2.08
2023-04-12T10:29:12.033Z,2.70
2023-04-12T10:34:10.384Z,2.42
2023-04-12T10:37:03.917Z,3.42
2023-04-12T10:42:20.770Z,2.88
2023-04-12T10:44:50.280Z,2.15
2023-04-12T10:47:18.325Z,3.85
2023-04-12T10:50:01.169Z,2.15
2023-04-12T10:52:28.920Z,2.53
2023-04-12T10:54:56.695Z,2.78
2023-04-12T10:57:54.074Z,2.13
2023-04-12T11:00:23.430Z,1.80
2023-04-12T11:03:12.458Z,1.80
2023-04-12T11:06:06.765Z,2.13
2023-04-12T11:08:41.024Z,5.70
2023-04-12T11:11:19.413Z,3.42
2023-04-12T11:13:47.265Z,2.92
2023-04-12T11:16:16.645Z,3.42
2023-04-12T11:18:47.436Z,7.00
2023-04-12T11:21:15.551Z,4.75
2023-04-12T11:23:44.475Z,4.95
2023-04-12T11:26:12.402Z,4.57
2023-04-12T11:28:40.323Z,4.85
2023-04-12T11:31:08.226Z,4.10
2023-04-12T11:33:38.440Z,2.22
2023-04-12T11:36:07.157Z,3.00
2023-04-12T11:38:36.275Z,1.75
2023-04-12T11:41:04.791Z,2.97
2023-04-12T11:43:32.922Z,4.55
2023-04-12T11:46:01.439Z,2.97
2023-04-12T11:48:29.530Z,5.50
2023-04-12T11:51:10.405Z,3.20
2023-04-12T11:53:40.241Z,6.25
2023-04-12T11:56:11.206Z,2.92
2023-04-12T11:58:39.325Z,2.28
2023-04-12T12:01:07.217Z,4.10
2023-04-12T12:03:35.566Z,6.00
2023-04-12T12:06:05.825Z,5.35
2023-04-12T12:08:34.428Z,5.68
2023-04-12T12:11:07.902Z,4.95
2023-04-12T12:13:47.008Z,5.05
2023-04-12T12:16:15.196Z,2.58
2023-04-12T12:18:43.959Z,2.92
2023-04-12T12:21:14.062Z,1.73
2023-04-12T12:23:43.674Z,4.85
2023-04-12T12:26:19.056Z,3.17
2023-04-12T12:28:50.653Z,2.45
2023-04-12T12:31:20.099Z,3.08
2023-04-12T12:33:48.405Z,2.70
2023-04-12T12:36:20.960Z,8.80
2023-04-12T12:38:51.607Z,4.72
2023-04-12T12:41:21.024Z,10.20
2023-04-12T12:43:48.949Z,1.73
2023-04-12T12:46:17.733Z,2.15
2023-04-12T12:48:46.216Z,3.47
2023-04-12T12:51:14.650Z,1.77
2023-04-12T12:53:43.976Z,2.67
2023-04-12T12:56:12.321Z,4.85
2023-04-12T12:58:41.145Z,1.75
2023-04-12T13:01:09.167Z,3.65
2023-04-12T13:03:37.144Z,3.97
2023-04-12T13:06:05.363Z,5.10
2023-04-12T13:08:35.257Z,2.92
2023-04-12T13:11:04.526Z,2.47
2023-04-12T13:13:32.327Z,3.85
2023-04-12T13:16:00.570Z,3.10
2023-04-12T13:18:28.366Z,4.50
2023-04-12T13:20:56.661Z,3.22
2023-04-12T13:23:24.436Z,1.90
2023-04-12T13:25:53.132Z,1.95
2023-04-12T13:28:22.578Z,2.75
2023-04-12T13:30:50.709Z,4.28
2023-04-12T13:33:21.583Z,3.05
2023-04-12T13:35:49.947Z,3.05
2023-04-12T13:38:18.044Z,3.10
2023-04-12T13:40:45.858Z,2.58
2023-04-12T13:43:13.662Z,1.33
2023-04-12T13:45:42.828Z,1.83
2023-04-12T13:48:10.774Z,4.93
2023-04-12T13:50:38.563Z,1.63
2023-04-12T13:53:07.088Z,2.90
2023-04-12T13:55:35.060Z,3.03
2023-04-12T13:58:04.139Z,4.05
2023-04-12T14:00:32.119Z,2.58
2023-04-12T14:03:02.741Z,3.63
2023-04-12T14:05:30.879Z,3.88
2023-04-12T14:07:58.682Z,3.55
2023-04-12T14:10:26.429Z,1.63
2023-04-12T14:12:54.441Z,2.15
2023-04-12T14:15:22.232Z,4.43
2023-04-12T14:17:50.262Z,2.40
2023-04-12T14:20:20.274Z,3.95
2023-04-12T14:22:48.077Z,2.90
2023-04-12T14:25:15.860Z,1.65
2023-04-12T14:27:43.598Z,2.50
2023-04-12T14:30:11.491Z,1.95
2023-04-12T14:32:39.353Z,2.90
2023-04-12T14:35:07.840Z,3.22
2023-04-12T14:37:37.178Z,2.97
2023-04-12T14:40:08.388Z,2.90
2023-04-12T14:42:36.477Z,3.10
2023-04-12T14:45:05.407Z,5.15
2023-04-12T14:47:33.614Z,2.28
2023-04-12T14:50:01.485Z,2.22
2023-04-12T14:52:29.210Z,5.43
2023-04-12T14:54:58.446Z,1.92
2023-04-12T14:57:26.239Z,2.88
2023-04-12T14:59:54.121Z,2.60
2023-04-12T15:02:24.523Z,1.45
2023-04-12T15:04:52.789Z,1.85
2023-04-12T15:07:20.868Z,2.28
2023-04-12T15:09:48.618Z,3.05
2023-04-12T15:12:18.359Z,2.10
2023-04-12T15:14:46.299Z,2.13
2023-04-12T15:17:14.243Z,1.50
2023-04-12T15:19:42.071Z,1.75
2023-04-12T15:22:09.888Z,3.50
2023-04-12T15:24:37.639Z,1.92
2023-04-12T15:27:06.707Z,1.15
2023-04-12T15:29:36.457Z,2.40
2023-04-12T15:32:04.355Z,1.80
2023-04-12T15:34:33.955Z,1.33
2023-04-12T15:37:02.427Z,1.98
2023-04-12T15:39:30.390Z,2.55
2023-04-12T15:41:58.312Z,1.88
2023-04-12T15:44:31.587Z,1.50
2023-04-12T15:47:10.856Z,1.50
2023-04-12T15:49:39.429Z,1.77
2023-04-12T15:52:07.223Z,2.30
2023-04-12T15:54:35.078Z,1.67
2023-04-12T15:57:09.638Z,0.70
2023-04-12T15:59:38.023Z,2.42
2023-04-12T16:02:09.986Z,1.20
2023-04-12T16:04:38.161Z,1.77
2023-04-12T16:07:06.123Z,1.50
2023-04-12T16:09:34.931Z,2.92
2023-04-12T16:12:02.860Z,3.22
2023-04-12T16:14:30.840Z,1.58
2023-04-12T16:16:59.207Z,1.25
2023-04-12T16:19:28.495Z,1.00
2023-04-12T16:21:56.772Z,2.08
2023-04-12T16:24:24.610Z,1.77
2023-04-12T16:26:52.883Z,7.18
2023-04-12T16:29:22.491Z,1.42
2023-04-12T16:31:51.641Z,1.50
2023-04-12T16:34:21.921Z,2.83
2023-04-12T16:36:52.760Z,3.00
2023-04-12T16:39:20.578Z,1.45
2023-04-12T16:41:48.495Z,2.25
2023-04-12T16:44:17.654Z,1.30
2023-04-12T16:46:48.010Z,1.10
2023-04-12T16:49:19.059Z,3.88
2023-04-12T16:51:47.829Z,3.38
2023-04-12T16:54:17.095Z,2.33
2023-04-12T16:56:45.163Z,1.88
2023-04-12T16:59:13.464Z,1.48
2023-04-12T17:01:42.295Z,2.45
2023-04-12T17:04:10.356Z,2.08
2023-04-12T17:06:39.690Z,1.80
2023-04-12T17:09:09.633Z,2.75
2023-04-12T17:11:38.812Z,1.40
2023-04-12T17:14:07.635Z,1.08
2023-04-12T17:16:35.611Z,1.85
2023-04-12T17:19:03.511Z,1.52
2023-04-12T17:21:40.803Z,4.75
2023-04-12T17:24:09.136Z,4.10
2023-04-12T17:26:37.336Z,2.50
2023-04-12T17:29:07.102Z,3.30
2023-04-12T17:31:35.229Z,1.58
2023-04-12T17:34:03.842Z,1.35
2023-04-12T17:36:32.322Z,1.85
2023-04-12T17:39:01.478Z,2.05
2023-04-12T17:41:29.481Z,1.35
2023-04-12T17:43:57.579Z,1.73
2023-04-12T17:46:27.388Z,1.63
2023-04-12T17:48:55.818Z,2.20
2023-04-12T17:51:23.663Z,2.22
2023-04-12T17:53:52.011Z,3.20
2023-04-12T17:56:20.431Z,2.85
2023-04-12T17:58:48.204Z,3.50
2023-04-12T18:01:16.237Z,7.25
2023-04-12T18:03:45.583Z,2.22
2023-04-12T18:06:13.931Z,5.82
2023-04-12T18:08:41.714Z,4.78
2023-04-12T18:11:09.580Z,3.42
2023-04-12T18:13:37.611Z,3.63
2023-04-12T18:16:05.643Z,3.72
2023-04-12T18:18:33.550Z,3.92
2023-04-12T18:21:05.631Z,4.03
2023-04-12T18:23:33.442Z,1.20
2023-04-12T18:26:01.205Z,1.88
2023-04-12T18:28:31.385Z,3.65
2023-04-12T18:30:59.849Z,1.95
2023-04-12T18:33:29.730Z,1.85
2023-04-12T18:35:57.470Z,2.03
2023-04-12T18:38:26.625Z,2.70
2023-04-12T18:40:54.414Z,2.90
2023-04-12T18:43:22.197Z,3.65
2023-04-12T18:45:49.991Z,3.05
2023-04-12T18:48:17.838Z,1.77
2023-04-12T18:50:47.400Z,1.27
2023-04-12T18:53:15.449Z,0.65
2023-04-12T18:55:47.208Z,1.70
2023-04-12T18:58:15.353Z,0.73
2023-04-12T19:00:43.422Z,5.68
2023-04-12T19:03:11.517Z,10.43
2023-04-12T19:05:39.472Z,4.88
2023-04-12T19:08:10.180Z,6.28
2023-04-12T19:10:37.997Z,2.58
2023-04-12T19:13:07.232Z,1.77
2023-04-12T19:15:34.980Z,1.23
2023-04-12T19:18:03.131Z,0.88
2023-04-12T19:20:31.231Z,2.15
2023-04-12T19:22:59.236Z,1.75
2023-04-12T19:25:30.858Z,3.95
2023-04-12T19:27:59.210Z,4.28
2023-04-12T19:30:29.775Z,2.88
2023-04-12T19:32:58.635Z,1.67
2023-04-12T19:35:28.797Z,2.60
2023-04-12T19:37:58.284Z,2.00
2023-04-12T19:40:27.612Z,2.50
2023-04-12T19:42:56.552Z,2.72
2023-04-12T19:45:26.239Z,0.68
2023-04-12T19:47:56.156Z,1.65
2023-04-12T19:50:25.183Z,1.30
2023-04-12T19:52:53.019Z,2.95
2023-04-12T19:55:21.588Z,2.72
2023-04-12T19:57:49.638Z,4.35
2023-04-12T20:00:20.890Z,4.50
2023-04-12T20:02:49.215Z,5.57
2023-04-12T20:05:18.741Z,3.92
2023-04-12T20:07:46.591Z,1.48
2023-04-12T20:10:15.635Z,3.97
2023-04-12T20:12:44.336Z,5.13
2023-04-12T20:15:12.527Z,1.90
2023-04-12T20:17:41.899Z,2.17
2023-04-12T20:20:11.064Z,1.38
2023-04-12T20:22:41.147Z,2.00
2023-04-12T20:25:10.571Z,1.25
2023-04-12T20:27:39.562Z,1.58
2023-04-12T20:30:08.774Z,1.50
2023-04-12T20:32:39.616Z,1.60
2023-04-12T20:35:08.513Z,2.38
2023-04-12T20:37:36.753Z,1.70
2023-04-12T20:40:07.248Z,1.95
2023-04-12T20:42:35.522Z,1.42
2023-04-12T20:45:03.311Z,1.48
2023-04-12T20:47:31.134Z,1.50
2023-04-12T20:49:59.198Z,1.25
2023-04-12T20:52:27.627Z,2.30
2023-04-12T20:54:57.191Z,1.40
2023-04-12T20:57:26.911Z,1.60
2023-04-12T20:59:55.620Z,2.00
2023-04-12T21:02:23.496Z,1.30
2023-04-12T21:04:51.463Z,2.65
2023-04-12T21:07:20.470Z,1.42
2023-04-12T21:09:48.531Z,1.85
2023-04-12T21:12:17.601Z,0.98
2023-04-12T21:14:50.166Z,1.67
2023-04-12T21:17:22.210Z,1.85
2023-04-12T21:19:50.430Z,1.43
2023-04-12T21:22:18.260Z,2.10
2023-04-12T21:24:46.332Z,4.93
2023-04-12T21:27:14.544Z,5.50
2023-04-12T21:29:42.749Z,1.70
2023-04-12T21:32:12.458Z,4.82
2023-04-12T21:34:40.557Z,1.80
2023-04-12T21:37:09.293Z,2.00
2023-04-12T21:39:38.934Z,3.72
2023-04-12T21:42:07.222Z,4.05
2023-04-12T21:44:35.244Z,2.72
2023-04-12T21:47:03.076Z,1.77
2023-04-12T21:49:33.569Z,1.98
2023-04-12T21:52:01.397Z,1.58
2023-04-12T21:54:31.228Z,1.30
2023-04-12T21:56:59.201Z,2.40
2023-04-12T21:59:27.256Z,2.15
2023-04-12T22:01:55.277Z,2.40
2023-04-12T22:04:23.084Z,3.42
2023-04-12T22:06:52.798Z,3.65
2023-04-12T22:09:20.634Z,3.35
2023-04-12T22:11:49.096Z,1.50
2023-04-12T22:14:17.123Z,2.30
2023-04-12T22:16:45.229Z,1.35
2023-04-12T22:19:13.363Z,2.55
2023-04-12T22:21:41.473Z,1.30
2023-04-12T22:24:13.380Z,2.38
2023-04-12T22:26:41.121Z,1.85
2023-04-12T22:29:09.947Z,2.28
2023-04-12T22:31:38.482Z,3.97
2023-04-12T22:34:06.321Z,4.65
2023-04-12T22:36:37.661Z,2.42
2023-04-12T22:39:05.873Z,2.60
2023-04-12T22:41:37.987Z,4.65
2023-04-12T22:44:07.420Z,1.97
2023-04-12T22:46:39.133Z,4.05
2023-04-12T22:49:07.266Z,1.08
2023-04-12T22:51:35.352Z,3.88
2023-04-12T22:54:06.203Z,2.30
2023-04-12T22:56:41.733Z,3.22
2023-04-12T22:59:10.528Z,2.75
2023-04-12T23:01:38.388Z,1.45
2023-04-12T23:04:06.666Z,2.20
2023-04-12T23:06:34.415Z,5.53
2023-04-12T23:09:05.945Z,3.30
2023-04-12T23:11:36.083Z,6.50
2023-04-12T23:14:04.634Z,6.47
2023-04-12T23:16:33.678Z,6.93
2023-04-12T23:19:01.554Z,4.90
2023-04-12T23:21:30.645Z,6.13
2023-04-12T23:23:59.203Z,3.10
2023-04-12T23:26:27.366Z,2.75
2023-04-12T23:28:56.521Z,2.88
2023-04-12T23:31:24.558Z,3.20
2023-04-12T23:33:52.342Z,4.00
2023-04-12T23:36:21.936Z,2.95
2023-04-12T23:38:55.390Z,2.95
2023-04-12T23:41:24.472Z,2.33
2023-04-12T23:43:54.365Z,3.60
2023-04-12T23:46:23.525Z,2.80
2023-04-12T23:48:51.551Z,4.57
2023-04-12T23:51:19.330Z,2.53
2023-04-12T23:53:47.380Z,4.55
2023-04-12T23:56:15.098Z,2.50
2023-04-12T23:58:43.147Z,4.60
